Time;durP1;ratioP1;P1;durP2;ratioP2;P2;SDS_P1;SDS_P2;PMS_P1;PMS_P2;Temp;Humidity;BMP_temperature;BMP_pressure;BME280_temperature;BME280_humidity;BME280_pressure;Samples;Min_cycle;Max_cycle;Signal;HPM_P1;HPM_P2
2022/11/04 00:01:49;;;;;;;12.73;7.15;;;;;;;10.89;79.91;63123.25;5081036;28;20535;-76
2022/11/04 00:04:19;;;;;;;11.95;5.68;;;;;;;10.83;80.21;63112.47;5084494;28;20209;-75
2022/11/04 00:06:47;;;;;;;17.35;6.38;;;;;;;10.85;80.17;63119.09;5082146;28;20204;-75
2022/11/04 00:09:18;;;;;;;10.45;6.60;;;;;;;10.79;81.42;63115.44;5082788;28;20291;-77
2022/11/04 00:14:30;;;;;;;12.27;5.93;;;;;;;10.79;81.32;63113.41;5084130;28;20255;-75
2022/11/04 00:30:47;;;;;;;10.50;5.75;;;;;;;10.79;81.45;63113.41;5069402;28;20245;-76
2022/11/04 00:33:25;;;;;;;12.02;6.50;;;;;;;10.75;81.25;63114.34;5064020;28;20419;-77
2022/11/04 00:35:56;;;;;;;12.05;7.20;;;;;;;10.67;82.39;63101.00;5064459;28;20359;-75
2022/11/04 00:38:24;;;;;;;16.30;6.80;;;;;;;10.67;82.86;63097.91;5078649;28;20278;-76
2022/11/04 00:40:50;;;;;;;12.27;6.28;;;;;;;10.65;82.50;63093.31;5084083;28;20219;-75
2022/11/04 00:43:17;;;;;;;14.15;6.38;;;;;;;10.64;82.07;63094.81;5068624;28;20221;-76
2022/11/04 00:45:44;;;;;;;9.50;5.93;;;;;;;10.60;82.32;63090.66;5066697;28;20220;-77
2022/11/04 00:48:11;;;;;;;8.48;6.13;;;;;;;10.56;82.26;63087.03;5083194;28;20224;-76
2022/11/04 00:50:38;;;;;;;9.35;6.53;;;;;;;10.59;82.32;63092.72;5083412;28;20268;-76
2022/11/04 00:53:06;;;;;;;16.25;6.40;;;;;;;10.55;82.90;63082.94;5065948;28;20239;-75
2022/11/04 00:55:33;;;;;;;10.63;6.18;;;;;;;10.52;83.01;63084.94;5068867;28;20430;-75
2022/11/04 00:58:00;;;;;;;12.35;6.10;;;;;;;10.51;82.86;63084.41;5084053;28;20552;-76
2022/11/04 01:00:27;;;;;;;12.38;5.68;;;;;;;10.45;83.55;63083.84;5084684;28;20200;-75
2022/11/04 01:02:54;;;;;;;16.05;6.38;;;;;;;10.47;85.97;63077.75;5085408;28;20283;-76
2022/11/04 01:05:21;;;;;;;16.05;6.72;;;;;;;10.44;85.60;63077.69;5078710;28;20204;-75
2022/11/04 01:07:48;;;;;;;9.80;6.70;;;;;;;10.51;85.27;63081.38;5083701;28;20212;-76
2022/11/04 01:10:16;;;;;;;9.80;5.95;;;;;;;10.48;85.10;63079.28;5074614;28;20454;-76
2022/11/04 01:12:43;;;;;;;9.95;6.82;;;;;;;10.51;84.51;63078.81;5063384;28;20244;-76
2022/11/04 01:15:11;;;;;;;10.32;6.60;;;;;;;10.53;84.47;63086.50;5079881;28;20224;-76
2022/11/04 01:17:37;;;;;;;13.57;6.53;;;;;;;10.46;84.46;63076.69;5085780;28;20227;-75
2022/11/04 01:20:05;;;;;;;11.00;6.03;;;;;;;10.42;84.81;63075.13;5081254;28;20242;-75
2022/11/04 01:22:32;;;;;;;12.85;6.20;;;;;;;10.42;84.77;63075.13;5081256;28;20287;-75
2022/11/04 01:24:59;;;;;;;11.23;6.65;;;;;;;10.42;84.70;63073.06;5085107;28;20212;-76
2022/11/04 01:27:27;;;;;;;10.48;5.93;;;;;;;10.39;84.69;63069.97;5095975;28;20333;-75
2022/11/04 01:29:54;;;;;;;10.50;6.15;;;;;;;10.37;84.98;63067.91;5082953;28;20228;-76
2022/11/04 01:32:21;;;;;;;15.68;6.32;;;;;;;10.32;85.24;63062.72;5076339;28;20235;-76
2022/11/04 01:34:48;;;;;;;13.15;5.97;;;;;;;10.27;85.31;63062.66;5085549;28;20238;-76
2022/11/04 01:37:14;;;;;;;10.27;5.88;;;;;;;10.29;85.12;63059.63;5081245;28;20216;-76
2022/11/04 01:39:41;;;;;;;12.48;6.18;;;;;;;10.30;85.14;63063.22;5084871;28;20196;-75
2022/11/04 01:42:13;;;;;;;14.63;5.95;;;;;;;10.25;84.84;63052.44;5082321;28;20246;-76
2022/11/04 01:44:50;;;;;;;13.10;6.00;;;;;;;10.23;85.26;63050.88;5089212;28;20196;-77
2022/11/04 01:47:20;;;;;;;7.63;5.05;;;;;;;10.20;85.04;63050.31;5084926;28;20248;-76
2022/11/04 01:49:50;;;;;;;9.88;5.20;;;;;;;10.19;85.19;63051.84;5083677;28;20447;-76
2022/11/04 01:52:21;;;;;;;10.77;6.18;;;;;;;10.17;85.21;63042.13;5086460;28;20240;-76
2022/11/04 01:54:50;;;;;;;12.18;6.85;;;;;;;10.09;86.20;63035.88;5085043;28;20197;-75
2022/11/04 01:57:23;;;;;;;9.13;5.93;;;;;;;10.06;86.61;63035.81;5087260;28;20239;-76
2022/11/04 01:59:53;;;;;;;10.32;6.25;;;;;;;9.99;87.51;63026.03;5084623;28;20203;-75
2022/11/04 02:02:20;;;;;;;8.43;5.75;;;;;;;10.01;88.25;63030.13;5086673;28;20532;-74
2022/11/04 02:04:47;;;;;;;12.35;6.57;;;;;;;10.08;87.62;63037.91;5074932;28;20282;-76
2022/11/04 02:07:14;;;;;;;14.27;6.15;;;;;;;9.97;88.68;63029.06;5067331;28;20230;-76
2022/11/04 02:09:42;;;;;;;12.40;7.22;;;;;;;10.01;89.18;63035.72;5085114;28;20255;-76
2022/11/04 02:14:57;;;;;;;9.75;6.20;;;;;;;10.06;87.52;63035.81;5066329;28;20208;-75
2022/11/04 02:17:38;;;;;;;12.45;5.47;;;;;;;10.07;87.36;63033.78;5069503;28;20299;-76
2022/11/04 02:20:22;;;;;;;11.77;6.55;;;;;;;10.07;87.10;63036.34;5085973;28;20192;-76
2022/11/04 02:23:17;;;;;;;10.65;6.22;;;;;;;9.96;87.86;63022.94;5075378;28;20234;-76
2022/11/04 02:26:09;;;;;;;10.10;5.72;;;;;;;9.96;88.28;63028.00;5081374;28;20196;-74
2022/11/04 02:28:56;;;;;;;14.95;6.22;;;;;;;9.95;88.18;63023.91;5083280;28;20224;-76
2022/11/04 02:31:32;;;;;;;14.70;7.47;;;;;;;9.91;88.85;63020.28;5084931;28;20193;-74
2022/11/04 02:34:08;;;;;;;12.48;6.93;;;;;;;9.87;88.97;63016.16;5086052;28;20279;-75
2022/11/04 02:36:44;;;;;;;13.13;6.75;;;;;;;9.84;89.86;63012.53;5081661;28;20203;-76
2022/11/04 02:39:20;;;;;;;8.40;6.05;;;;;;;9.82;89.74;63018.09;5085859;28;20204;-74
2022/11/04 02:41:56;;;;;;;18.70;6.85;;;;;;;9.80;89.93;63011.44;5068781;28;20201;-75
2022/11/04 02:44:33;;;;;;;17.05;6.63;;;;;;;9.78;90.37;63008.88;5067050;28;20230;-77
2022/11/04 02:47:05;;;;;;;12.05;5.82;;;;;;;9.76;89.87;63009.88;5085530;28;20540;-75
2022/11/04 02:49:38;;;;;;;7.68;5.75;;;;;;;9.75;89.57;63008.81;5078742;28;20263;-74
2022/11/04 02:52:08;;;;;;;8.75;5.60;;;;;;;9.65;89.88;62995.94;5065728;28;20224;-76
2022/11/04 02:54:41;;;;;;;12.63;6.05;;;;;;;9.67;90.01;62992.41;5075320;28;20547;-76
2022/11/04 02:57:14;;;;;;;7.55;4.97;;;;;;;9.67;89.64;62992.94;5086847;28;20590;-77
2022/11/04 02:59:47;;;;;;;12.85;5.97;;;;;;;9.68;89.84;62998.53;5067973;28;20209;-75
2022/11/04 03:02:20;;;;;;;8.73;5.78;;;;;;;9.64;89.82;62992.38;5065705;28;20224;-75
2022/11/04 03:04:51;;;;;;;10.20;6.18;;;;;;;9.61;89.29;62988.75;5082963;28;20329;-76
2022/11/04 03:07:24;;;;;;;10.57;6.07;;;;;;;9.53;90.32;62983.53;5083645;28;20212;-75
2022/11/04 03:09:58;;;;;;;10.52;6.43;;;;;;;9.48;91.38;62973.28;5085266;28;20212;-76
2022/11/04 03:12:30;;;;;;;10.50;6.35;;;;;;;9.44;91.55;62973.72;5083682;28;20481;-76
2022/11/04 03:15:04;;;;;;;7.82;5.65;;;;;;;9.40;92.20;62967.56;5085775;28;20219;-75
2022/11/04 03:17:36;;;;;;;12.15;6.20;;;;;;;9.39;92.18;62966.50;5082794;28;20254;-76
2022/11/04 03:20:09;;;;;;;12.63;6.28;;;;;;;9.38;92.85;62965.50;5084734;28;20235;-75
2022/11/04 03:22:37;;;;;;;9.30;6.57;;;;;;;9.35;92.95;62964.94;5079694;28;20270;-75
2022/11/04 03:25:07;;;;;;;18.05;6.13;;;;;;;9.31;92.80;62958.78;5084592;28;20201;-75
2022/11/04 03:27:43;;;;;;;14.70;7.45;;;;;;;9.31;93.02;62958.78;5104966;28;20223;-76
2022/11/04 03:30:13;;;;;;;10.85;8.05;;;;;;;9.31;93.66;62960.78;5098508;28;20258;-74
2022/11/04 03:32:52;;;;;;;22.55;7.15;;;;;;;9.34;93.81;62961.88;5083507;28;20241;-76
2022/11/04 03:35:19;;;;;;;15.35;7.10;;;;;;;9.27;93.94;62951.56;5083549;28;20260;-74
2022/11/04 03:37:48;;;;;;;11.50;6.85;;;;;;;9.27;94.58;62957.16;5088985;28;20239;-75
2022/11/04 03:40:16;;;;;;;9.32;7.00;;;;;;;9.23;95.03;62947.94;5081315;28;20201;-75
2022/11/04 03:42:48;;;;;;;14.23;6.13;;;;;;;9.22;94.98;62948.94;5083724;28;20451;-75
2022/11/04 03:45:15;;;;;;;16.67;7.40;;;;;;;9.18;95.32;62947.88;5067214;28;20186;-75
2022/11/04 03:47:44;;;;;;;11.35;6.40;;;;;;;9.15;95.37;62944.78;5064140;28;20232;-76
2022/11/04 03:50:18;;;;;;;12.82;6.90;;;;;;;9.13;95.81;62942.19;5078922;28;20270;-75
2022/11/04 03:52:45;;;;;;;10.32;6.28;;;;;;;9.16;95.90;62943.25;5084851;28;20221;-77
2022/11/04 03:55:13;;;;;;;9.75;6.88;;;;;;;9.13;96.26;62934.56;5083997;28;20208;-75
2022/11/04 03:57:48;;;;;;;14.65;7.43;;;;;;;9.10;97.02;62936.53;5081511;28;20394;-75
2022/11/04 04:00:18;;;;;;;13.73;7.05;;;;;;;9.12;97.71;62941.16;5085469;28;20383;-75
2022/11/04 04:03:09;;;;;;;13.68;8.35;;;;;;;9.14;97.76;62943.75;5068741;28;20324;-74
2022/11/04 04:05:43;;;;;;;20.10;9.18;;;;;;;9.19;97.96;62948.91;5062027;28;20209;-77
2022/11/04 04:08:23;;;;;;;17.13;9.02;;;;;;;9.16;97.94;62943.25;5081566;28;20412;-77
2022/11/04 04:11:02;;;;;;;15.23;8.90;;;;;;;9.19;98.26;62948.38;5085054;28;20227;-76
2022/11/04 04:13:38;;;;;;;15.15;9.07;;;;;;;9.16;98.42;62942.75;5084899;28;20216;-76
2022/11/04 04:16:11;;;;;;;15.93;8.88;;;;;;;9.10;98.21;62936.53;5080331;28;20216;-79
2022/11/04 04:18:46;;;;;;;15.25;7.85;;;;;;;9.18;98.49;62945.31;5087555;28;20213;-78
2022/11/04 04:21:19;;;;;;;14.55;9.00;;;;;;;9.10;98.82;62937.06;5083608;28;20423;-77
2022/11/04 04:29:22;;;;;;;16.85;8.40;;;;;;;8.97;99.36;62923.63;5081125;28;20263;-76
2022/11/04 04:31:50;;;;;;;19.58;9.48;;;;;;;9.05;99.75;62928.84;5084010;28;20198;-76
2022/11/04 04:34:21;;;;;;;19.33;10.10;;;;;;;9.01;99.72;62930.28;5082848;28;20201;-76
2022/11/04 04:36:53;;;;;;;22.60;10.05;;;;;;;8.98;99.82;62926.69;5084463;28;20192;-76
2022/11/04 04:45:05;;;;;;;18.02;10.65;;;;;;;8.81;100.00;62909.63;5065021;28;20224;-78
2022/11/04 04:47:38;;;;;;;15.20;9.15;;;;;;;8.82;100.00;62908.13;5075234;28;20220;-79
2022/11/04 04:50:10;;;;;;;16.00;9.48;;;;;;;8.80;100.00;62908.09;5084108;28;20216;-76
2022/11/04 04:52:42;;;;;;;18.95;9.88;;;;;;;8.79;100.00;62904.50;5082804;28;20205;-76
2022/11/04 04:55:11;;;;;;;21.05;10.05;;;;;;;8.80;100.00;62905.53;5085414;28;20239;-76
2022/11/04 04:57:40;;;;;;;17.48;10.02;;;;;;;8.77;100.00;62900.41;5063977;28;20217;-77
2022/11/04 05:00:12;;;;;;;16.48;9.43;;;;;;;8.78;100.00;62906.53;5071568;28;20662;-77
2022/11/04 05:02:39;;;;;;;14.95;9.05;;;;;;;8.78;100.00;62900.94;5085023;28;20284;-77
2022/11/04 05:05:09;;;;;;;14.65;9.30;;;;;;;8.79;100.00;62902.47;5079253;28;20216;-76
2022/11/04 05:07:36;;;;;;;12.95;8.90;;;;;;;8.80;100.00;62905.53;5063984;28;20224;-77
2022/11/04 05:10:03;;;;;;;13.98;7.93;;;;;;;8.73;100.00;62896.28;5077623;28;20270;-75
2022/11/04 05:13:24;;;;;;;15.68;8.07;;;;;;;8.73;100.00;62895.78;5086322;28;20220;-77
2022/11/04 05:15:19;;;;;;;12.90;8.30;;;;;;;8.79;100.00;62905.03;5085943;28;20229;-78
2022/11/04 05:17:46;;;;;;;14.32;8.68;;;;;;;8.83;100.00;62906.09;5080218;28;20244;-76
2022/11/04 05:20:16;;;;;;;13.02;7.38;;;;;;;8.82;100.00;62905.06;5071011;28;20209;-79
2022/11/04 05:22:43;;;;;;;15.85;8.75;;;;;;;8.82;100.00;62907.59;5069362;28;20205;-76
2022/11/04 05:25:13;;;;;;;14.15;8.68;;;;;;;8.80;100.00;62908.09;5091045;28;20500;-79
2022/11/04 05:27:41;;;;;;;16.60;9.20;;;;;;;8.77;100.00;62902.94;5095801;28;20233;-78
2022/11/04 05:30:09;;;;;;;11.80;8.93;;;;;;;8.83;100.00;62916.25;5084832;28;20302;-76
2022/11/04 05:32:38;;;;;;;15.77;9.80;;;;;;;8.90;100.00;62918.41;5088184;28;20220;-80
2022/11/04 05:35:06;;;;;;;21.05;10.55;;;;;;;8.91;100.00;62919.44;5088962;28;20235;-75
2022/11/04 05:37:34;;;;;;;15.23;9.10;;;;;;;9.02;100.00;62928.28;5085676;28;20263;-77
2022/11/04 05:40:01;;;;;;;15.55;9.55;;;;;;;9.00;100.00;62926.72;5080364;28;20222;-77
2022/11/04 05:42:28;;;;;;;14.68;9.38;;;;;;;9.00;100.00;62924.19;5066695;28;20217;-75
2022/11/04 05:44:55;;;;;;;15.50;9.23;;;;;;;9.00;100.00;62923.66;5070227;28;20248;-75
2022/11/04 05:47:22;;;;;;;16.25;9.38;;;;;;;9.03;100.00;62931.84;5083632;28;20517;-76
2022/11/04 05:49:48;;;;;;;13.25;9.43;;;;;;;9.05;100.00;62929.34;5089876;28;20220;-74
2022/11/04 05:52:15;;;;;;;18.10;10.45;;;;;;;9.12;100.00;62941.66;5086451;28;20284;-75
2022/11/04 05:54:43;;;;;;;17.52;9.60;;;;;;;9.20;100.00;62949.94;5085044;28;20234;-76
2022/11/04 05:57:11;;;;;;;20.10;10.35;;;;;;;9.25;100.00;62952.03;5076743;28;20225;-77
2022/11/04 05:59:38;;;;;;;22.80;12.48;;;;;;;9.38;100.00;62964.97;5067425;28;20197;-77
2022/11/04 06:02:06;;;;;;;16.67;10.90;;;;;;;9.44;100.00;62968.63;5068559;28;20201;-76
2022/11/04 06:04:33;;;;;;;16.23;9.90;;;;;;;9.48;100.00;62972.75;5087025;28;20524;-77
2022/11/04 06:07:00;;;;;;;19.92;11.90;;;;;;;9.54;100.00;62984.06;5083998;28;20239;-76
2022/11/04 06:09:38;;;;;;;23.23;13.18;;;;;;;9.59;100.00;62987.22;5086225;28;20192;-78
2022/11/04 06:12:09;;;;;;;22.02;13.20;;;;;;;9.66;100.00;62993.94;5087726;28;20310;-79
2022/11/04 06:14:36;;;;;;;19.25;12.93;;;;;;;9.72;100.00;62998.09;5085669;28;20235;-76
2022/11/04 06:17:02;;;;;;;24.35;13.18;;;;;;;9.81;100.00;63009.44;5086114;28;20192;-76
2022/11/04 06:19:30;;;;;;;21.10;12.98;;;;;;;9.92;100.00;63018.28;5088063;28;20215;-75
2022/11/04 06:21:56;;;;;;;24.75;13.23;;;;;;;10.03;100.00;63032.72;5085038;28;20204;-77
2022/11/04 06:24:23;;;;;;;21.67;12.77;;;;;;;10.07;100.00;63041.94;5071863;28;20494;-77
2022/11/04 06:26:50;;;;;;;19.00;12.75;;;;;;;10.15;100.00;63044.63;5102085;28;20208;-76
2022/11/04 06:29:19;;;;;;;24.23;13.70;;;;;;;10.05;100.00;63031.72;5107204;28;20216;-77
2022/11/04 06:31:46;;;;;;;21.30;14.00;;;;;;;10.11;100.00;63040.50;5086168;28;20258;-76
2022/11/04 06:34:13;;;;;;;25.10;14.13;;;;;;;10.27;100.00;63057.03;5083862;28;20240;-77
2022/11/04 06:36:40;;;;;;;19.40;13.73;;;;;;;10.33;100.00;63061.22;5087849;28;20330;-76
2022/11/04 06:39:07;;;;;;;28.13;15.45;;;;;;;10.36;100.00;63066.34;5085979;28;20227;-76
2022/11/04 06:41:34;;;;;;;31.77;15.55;;;;;;;10.47;100.00;63078.25;5084989;28;20207;-76
2022/11/04 06:44:01;;;;;;;28.13;15.68;;;;;;;10.49;100.00;63079.81;5102805;28;20212;-76
2022/11/04 06:46:34;;;;;;;28.80;16.80;;;;;;;10.56;100.00;63084.00;5080429;28;20497;-77
2022/11/04 06:49:01;;;;;;;28.65;17.67;;;;;;;10.71;100.00;63102.59;5078969;28;20270;-77
2022/11/04 06:51:29;;;;;;;24.92;17.13;;;;;;;10.77;100.00;63110.84;5088626;28;20550;-76
2022/11/04 06:53:56;;;;;;;29.63;16.80;;;;;;;10.90;100.00;63119.72;5079590;28;20228;-76
2022/11/04 06:56:22;;;;;;;28.13;17.02;;;;;;;11.02;100.00;63136.72;5078092;28;20209;-77
2022/11/04 06:58:50;;;;;;;27.30;17.58;;;;;;;11.16;100.00;63146.09;5081788;28;20232;-77
2022/11/04 07:01:18;;;;;;;31.35;17.02;;;;;;;11.26;100.00;63161.56;5081287;28;20489;-76
2022/11/04 07:03:48;;;;;;;25.58;16.75;;;;;;;11.39;100.00;63170.44;5081435;28;20257;-78
2022/11/04 07:06:15;;;;;;;34.80;17.65;;;;;;;11.46;100.00;63179.72;5083791;28;20224;-77
2022/11/04 07:08:42;;;;;;;34.25;18.02;;;;;;;11.61;100.00;63198.31;5080981;28;20220;-76
2022/11/04 07:11:09;;;;;;;26.00;17.60;;;;;;;11.68;100.00;63202.03;5086351;28;20286;-76
2022/11/04 07:13:36;;;;;;;29.95;18.15;;;;;;;11.78;100.00;63218.00;5076085;28;20221;-77
2022/11/04 07:16:05;;;;;;;32.03;16.90;;;;;;;11.96;100.00;63231.53;5065509;28;20201;-76
2022/11/04 07:18:32;;;;;;;27.00;16.13;;;;;;;12.03;100.00;63235.75;5066126;28;20221;-77
2022/11/04 07:21:02;;;;;;;25.63;15.75;;;;;;;12.13;100.00;63251.72;5077695;28;20398;-76
2022/11/04 07:23:29;;;;;;;31.60;17.90;;;;;;;12.23;99.99;63261.56;5079881;28;20225;-77
2022/11/04 07:26:00;;;;;;;35.72;17.65;;;;;;;12.40;99.55;63274.09;5079330;28;20453;-76
2022/11/04 07:28:26;;;;;;;30.17;16.55;;;;;;;12.52;98.43;63289.59;5082604;28;20413;-76
2022/11/04 07:30:58;;;;;;;32.22;17.35;;;;;;;12.63;97.27;63300.50;5082395;28;20228;-78
2022/11/04 07:33:25;;;;;;;32.53;18.30;;;;;;;12.59;96.23;63296.34;5083266;28;20217;-78
2022/11/04 07:35:55;;;;;;;30.88;17.33;;;;;;;12.72;95.94;63307.78;5077269;28;20261;-77
2022/11/04 07:38:24;;;;;;;27.63;17.58;;;;;;;12.86;95.05;63321.28;5081523;28;20223;-76
2022/11/04 07:40:51;;;;;;;34.85;18.70;;;;;;;12.56;95.38;63296.28;5079125;28;20550;-77
2022/11/04 07:43:18;;;;;;;37.03;17.83;;;;;;;12.68;97.83;63306.19;5064799;28;20217;-76
2022/11/04 07:45:44;;;;;;;35.35;18.42;;;;;;;12.87;97.76;63322.28;5080985;28;20208;-77
2022/11/04 07:48:11;;;;;;;26.75;17.30;;;;;;;12.95;94.05;63336.22;5084063;28;20217;-77
2022/11/04 07:50:39;;;;;;;30.13;18.05;;;;;;;12.80;94.90;63318.13;5084674;28;20235;-77
2022/11/04 07:53:06;;;;;;;31.30;18.85;;;;;;;13.03;93.29;63344.53;5080390;28;20236;-75
2022/11/04 07:55:37;;;;;;;33.05;18.70;;;;;;;12.98;92.06;63336.28;5085511;28;20238;-77
2022/11/04 07:58:04;;;;;;;27.02;17.35;;;;;;;13.15;94.17;63356.47;5082028;28;20270;-76
2022/11/04 08:00:31;;;;;;;30.92;18.90;;;;;;;13.28;91.95;63367.94;5071610;28;20510;-76
2022/11/04 08:02:58;;;;;;;28.10;17.20;;;;;;;13.43;91.00;63382.97;5083321;28;20334;-77
2022/11/04 08:05:25;;;;;;;30.63;17.52;;;;;;;13.44;89.02;63386.56;5065918;28;20254;-77
2022/11/04 08:07:52;;;;;;;31.90;18.17;;;;;;;13.41;89.37;63381.41;5069944;28;20384;-76
2022/11/04 08:10:18;;;;;;;27.25;17.25;;;;;;;13.51;89.17;63393.81;5068022;28;20212;-75
2022/11/04 08:12:47;;;;;;;33.55;18.20;;;;;;;13.58;87.34;63398.53;5078628;28;20234;-78
2022/11/04 08:15:14;;;;;;;32.97;18.27;;;;;;;13.53;87.93;63391.28;5069599;28;20205;-76
2022/11/04 08:17:41;;;;;;;30.38;18.42;;;;;;;13.47;87.68;63389.66;5066152;28;20234;-76
2022/11/04 08:20:09;;;;;;;29.92;17.65;;;;;;;13.56;88.16;63396.47;5077743;28;20377;-77
2022/11/04 08:22:36;;;;;;;27.15;16.25;;;;;;;13.69;87.22;63415.06;5067631;28;20589;-76
2022/11/04 08:25:03;;;;;;;26.58;17.95;;;;;;;13.77;84.65;63421.31;5072043;28;20211;-76
2022/11/04 08:27:30;;;;;;;25.45;17.83;;;;;;;13.93;87.63;63437.41;5103950;28;20446;-77
2022/11/04 08:29:58;;;;;;;27.98;17.42;;;;;;;14.09;84.13;63454.03;5105370;28;20200;-79
2022/11/04 08:32:25;;;;;;;29.42;17.92;;;;;;;14.28;80.99;63476.34;5101116;28;20427;-76
2022/11/04 08:34:52;;;;;;;26.45;16.88;;;;;;;14.21;81.28;63461.38;5067645;28;20239;-76
2022/11/04 08:37:19;;;;;;;32.65;16.38;;;;;;;14.33;83.64;63481.00;5066871;28;20217;-77
2022/11/04 08:39:46;;;;;;;27.55;16.02;;;;;;;14.51;83.92;63492.53;5064310;28;20200;-75
2022/11/04 08:42:14;;;;;;;30.85;16.98;;;;;;;14.67;80.62;63511.19;5065622;28;20221;-76
2022/11/04 08:44:41;;;;;;;25.60;16.70;;;;;;;14.39;79.94;63479.56;5064162;28;20211;-77
2022/11/04 08:47:10;;;;;;;31.23;17.08;;;;;;;14.48;79.89;63494.53;5065898;28;20572;-76
2022/11/04 08:49:38;;;;;;;33.10;17.42;;;;;;;14.72;80.42;63519.47;5072782;28;20493;-76
2022/11/04 08:52:06;;;;;;;26.02;16.77;;;;;;;14.77;78.37;63519.53;5082167;28;20224;-76
2022/11/04 08:54:33;;;;;;;24.83;16.33;;;;;;;14.98;76.85;63543.41;5067111;28;20255;-75
2022/11/04 08:56:59;;;;;;;24.35;15.52;;;;;;;14.81;74.85;63533.94;5064524;28;20494;-76
2022/11/04 08:59:27;;;;;;;27.60;16.02;;;;;;;14.83;77.42;63530.38;5063227;28;20246;-76
2022/11/04 09:01:54;;;;;;;29.30;16.33;;;;;;;15.05;75.71;63551.19;5066971;28;20463;-76
2022/11/04 09:04:23;;;;;;;28.52;15.63;;;;;;;15.26;75.23;63577.09;5064870;28;20223;-75
2022/11/04 09:06:51;;;;;;;26.13;16.17;;;;;;;15.42;74.41;63591.19;5064141;28;20201;-76
2022/11/04 09:09:20;;;;;;;31.08;16.15;;;;;;;15.61;72.62;63610.94;5066172;28;20197;-76
2022/11/04 09:11:47;;;;;;;24.13;15.38;;;;;;;15.45;71.42;63592.25;5065282;28;20286;-77
2022/11/04 09:14:16;;;;;;;27.40;15.13;;;;;;;15.73;69.26;63618.81;5063930;28;20410;-77
2022/11/04 09:16:44;;;;;;;26.98;15.50;;;;;;;15.88;67.98;63633.88;5066148;28;20197;-76
2022/11/04 09:19:10;;;;;;;24.70;14.48;;;;;;;15.87;66.92;63635.94;5063131;28;20227;-75
2022/11/04 09:21:39;;;;;;;26.92;15.63;;;;;;;15.95;67.09;63644.25;5079845;28;20255;-75
2022/11/04 09:24:07;;;;;;;23.13;13.98;;;;;;;16.23;66.71;63672.84;5084838;28;20253;-75
2022/11/04 09:26:34;;;;;;;20.60;14.50;;;;;;;16.39;64.96;63692.06;5096954;28;20541;-76
2022/11/04 09:29:02;;;;;;;23.00;13.32;;;;;;;16.58;63.86;63713.91;5072903;28;20266;-76
2022/11/04 09:31:30;;;;;;;23.05;14.32;;;;;;;16.09;63.70;63658.28;5063896;28;20283;-74
2022/11/04 09:33:58;;;;;;;27.25;13.88;;;;;;;16.08;63.65;63657.75;5079327;28;20236;-74
2022/11/04 09:36:25;;;;;;;18.92;11.35;;;;;;;16.26;65.13;63675.97;5081172;28;20222;-76
2022/11/04 09:38:53;;;;;;;25.67;14.82;;;;;;;16.44;62.82;63694.16;5072014;28;20216;-74
2022/11/04 09:41:36;;;;;;;27.60;14.80;;;;;;;16.24;62.41;63675.94;5083185;28;20192;-74
2022/11/04 09:44:15;;;;;;;22.60;14.77;;;;;;;16.22;63.10;63674.38;5080789;28;20270;-75
2022/11/04 09:46:44;;;;;;;25.90;13.63;;;;;;;16.25;63.42;63677.50;5083359;28;20382;-75
2022/11/04 09:49:15;;;;;;;22.48;14.00;;;;;;;16.56;62.44;63711.81;5083710;28;20196;-75
2022/11/04 09:51:44;;;;;;;23.63;14.73;;;;;;;16.75;63.02;63729.53;5082653;28;20212;-74
2022/11/04 09:54:19;;;;;;;24.65;15.50;;;;;;;16.87;61.65;63741.50;5082067;28;20204;-75
2022/11/04 09:56:50;;;;;;;25.73;15.68;;;;;;;16.77;60.22;63728.53;5083692;28;20184;-75
2022/11/04 09:59:24;;;;;;;27.73;15.43;;;;;;;16.97;60.35;63754.47;5081528;28;20204;-76
2022/11/04 10:02:01;;;;;;;28.98;15.40;;;;;;;17.22;60.26;63778.44;5086511;28;20464;-76
2022/11/04 10:04:41;;;;;;;26.05;15.75;;;;;;;17.17;60.06;63775.31;5087624;28;20226;-75
2022/11/04 10:07:20;;;;;;;24.63;16.05;;;;;;;17.40;58.55;63796.66;5086787;28;20220;-75
2022/11/04 10:10:01;;;;;;;30.13;16.83;;;;;;;17.47;56.99;63803.44;5084457;28;20196;-75
2022/11/04 10:12:53;;;;;;;23.52;14.32;;;;;;;17.38;58.07;63796.66;5085964;28;20273;-76
2022/11/04 10:15:45;;;;;;;29.58;15.43;;;;;;;17.38;57.40;63791.50;5073423;28;20201;-76
2022/11/04 10:18:26;;;;;;;29.58;15.77;;;;;;;17.37;56.92;63790.97;5051217;28;20258;-76
2022/11/04 10:21:05;;;;;;;29.83;16.50;;;;;;;17.08;57.46;63758.72;5083635;28;20197;-76
2022/11/04 10:23:43;;;;;;;34.90;15.20;;;;;;;17.13;57.56;63766.50;5084786;28;20269;-78
2022/11/04 10:26:19;;;;;;;26.25;14.65;;;;;;;16.92;57.97;63744.13;5089951;28;20259;-76
2022/11/04 10:28:52;;;;;;;26.08;15.48;;;;;;;16.60;59.14;63715.97;5090958;28;20223;-74
2022/11/04 10:31:19;;;;;;;26.33;14.70;;;;;;;16.39;60.38;63694.63;5109492;28;20268;-76
2022/11/04 10:33:50;;;;;;;28.50;16.20;;;;;;;16.26;61.15;63681.09;5089018;28;20224;-75
2022/11/04 10:36:18;;;;;;;30.65;14.80;;;;;;;16.50;60.90;63700.44;5097876;28;20270;-75
2022/11/04 10:38:48;;;;;;;26.42;15.15;;;;;;;16.51;60.98;63701.47;5094599;28;20219;-77
2022/11/04 10:41:29;;;;;;;26.75;13.60;;;;;;;16.55;60.57;63711.28;5100218;28;20240;-75
2022/11/04 10:44:01;;;;;;;23.10;14.52;;;;;;;16.48;60.31;63701.44;5093576;28;20550;-74
2022/11/04 10:46:40;;;;;;;22.25;13.90;;;;;;;16.51;60.21;63701.47;5088042;28;20196;-75
2022/11/04 10:49:30;;;;;;;23.13;14.38;;;;;;;16.69;59.86;63722.75;5084626;28;20216;-78
2022/11/04 10:51:57;;;;;;;21.10;13.30;;;;;;;16.85;60.03;63742.50;5067568;28;20520;-76
2022/11/04 10:54:26;;;;;;;22.67;13.18;;;;;;;17.11;58.90;63769.06;5067270;28;20193;-77
2022/11/04 10:56:57;;;;;;;21.15;14.18;;;;;;;17.22;57.18;63783.09;5065203;28;20200;-77
2022/11/04 10:59:29;;;;;;;20.75;14.32;;;;;;;17.15;56.98;63770.66;5071697;28;20193;-76
2022/11/04 11:01:57;;;;;;;27.13;13.98;;;;;;;17.12;57.95;63768.03;5086451;28;20200;-75
2022/11/04 11:04:28;;;;;;;18.80;13.15;;;;;;;17.39;57.13;63795.09;5087823;28;20231;-75
2022/11/04 11:06:58;;;;;;;27.20;14.55;;;;;;;17.37;57.59;63793.00;5076907;28;20405;-75
2022/11/04 11:09:28;;;;;;;20.23;12.77;;;;;;;17.56;56.51;63813.34;5067481;28;20196;-77
2022/11/04 11:12:01;;;;;;;29.83;14.35;;;;;;;17.68;55.32;63825.84;5067399;28;20475;-77
2022/11/04 11:14:37;;;;;;;23.60;13.65;;;;;;;17.70;55.24;63822.78;5065005;28;20188;-77
2022/11/04 11:17:25;;;;;;;20.55;14.00;;;;;;;17.46;55.23;63802.94;5065590;28;20184;-75
2022/11/04 11:19:57;;;;;;;24.67;12.90;;;;;;;17.53;54.58;63807.13;5078062;28;20204;-76
2022/11/04 11:22:31;;;;;;;19.42;13.05;;;;;;;17.47;55.12;63808.59;5063559;28;20216;-75
2022/11/04 11:25:15;;;;;;;25.27;13.75;;;;;;;17.61;54.79;63818.56;5066343;28;20185;-75
2022/11/04 11:27:47;;;;;;;29.67;12.85;;;;;;;17.73;53.88;63831.03;5106128;28;20215;-76
2022/11/04 11:30:23;;;;;;;21.55;12.68;;;;;;;17.81;54.26;63836.78;5083812;28;20193;-77
2022/11/04 11:32:54;;;;;;;23.67;13.23;;;;;;;17.86;54.02;63844.56;5066347;28;20232;-75
2022/11/04 11:35:25;;;;;;;20.88;13.30;;;;;;;18.11;53.84;63873.22;5067303;28;20512;-75
2022/11/04 11:37:53;;;;;;;22.42;13.48;;;;;;;18.34;53.77;63899.22;5064218;28;20255;-75
2022/11/04 11:40:30;;;;;;;21.25;14.25;;;;;;;18.60;54.08;63921.19;5082838;28;20242;-75
2022/11/04 11:43:00;;;;;;;23.88;12.63;;;;;;;18.81;52.48;63945.63;5085181;28;20215;-76
2022/11/04 11:45:27;;;;;;;21.85;13.43;;;;;;;19.01;51.70;63963.41;5084771;28;20200;-75
2022/11/04 11:47:55;;;;;;;20.08;12.20;;;;;;;19.15;51.67;63975.41;5085807;28;20283;-74
2022/11/04 11:50:28;;;;;;;18.17;11.75;;;;;;;19.30;50.59;63991.59;5084508;28;20207;-76
2022/11/04 11:53:13;;;;;;;20.25;13.05;;;;;;;19.30;50.31;63991.06;5067241;28;20235;-77
2022/11/04 11:55:46;;;;;;;23.27;12.23;;;;;;;19.32;50.71;63995.75;5065553;28;20189;-75
2022/11/04 11:58:22;;;;;;;22.60;12.50;;;;;;;19.25;50.22;63985.84;5067315;28;20221;-76
2022/11/04 12:00:54;;;;;;;17.50;11.60;;;;;;;19.05;50.49;63965.00;5064264;28;20204;-76
2022/11/04 12:03:34;;;;;;;21.75;11.68;;;;;;;19.14;50.20;63971.78;5064779;28;20246;-76
2022/11/04 12:06:16;;;;;;;16.58;11.50;;;;;;;18.92;49.79;63951.94;5066707;28;20181;-76
2022/11/04 12:09:11;;;;;;;20.95;12.00;;;;;;;18.91;50.87;63953.50;5064466;28;20227;-76